Time;durP1;ratioP1;P1;durP2;ratioP2;P2;SDS_P1;SDS_P2;PMS_P1;PMS_P2;Temp;Humidity;BMP_temperature;BMP_pressure;BME280_temperature;BME280_humidity;BME280_pressure;Samples;Min_cycle;Max_cycle;Signal;HPM_P1;HPM_P2
2024/01/22 00:01:07;;;;;;;;;0.00;0.00;;;;;11.09;100.00;101386.72;6337658;22;58679;-90
2024/01/22 00:03:32;;;;;;;;;0.00;0.00;;;;;11.09;100.00;101378.91;6310685;22;53122;-90
2024/01/22 00:06:11;;;;;;;;;0.00;0.00;;;;;11.04;100.00;101379.00;6336542;22;47264;-92
2024/01/22 00:08:51;;;;;;;;;0.00;0.00;;;;;11.11;100.00;101363.25;6336141;22;45192;-89
2024/01/22 00:11:17;;;;;;;;;0.00;0.00;;;;;11.11;100.00;101345.88;6362197;22;55083;-91
2024/01/22 00:14:22;;;;;;;;;0.00;0.00;;;;;11.16;100.00;101366.59;6335872;22;45341;-91
2024/01/22 00:16:47;;;;;;;;;0.00;0.00;;;;;11.22;100.00;101351.69;6335828;22;48140;-89
2024/01/22 00:19:12;;;;;;;;;0.00;0.00;;;;;11.17;100.00;101339.66;6309015;22;59716;-89
2024/01/22 00:21:47;;;;;;;;;0.00;0.00;;;;;11.16;100.00;101327.50;6337344;22;45565;-92
2024/01/22 00:24:15;;;;;;;;;0.00;0.00;;;;;11.19;100.00;101332.66;6336287;22;45143;-94
2024/01/22 00:26:41;;;;;;;;;0.00;0.00;;;;;11.24;100.00;101291.72;6336880;22;45372;-91
2024/01/22 00:29:07;;;;;;;;;0.00;0.00;;;;;11.23;100.00;101271.75;6362811;22;47528;-90
2024/01/22 00:31:39;;;;;;;;;1.00;0.00;;;;;11.19;100.00;101284.00;6362803;22;45382;-93
2024/01/22 00:34:16;;;;;;;;;0.00;0.00;;;;;11.11;100.00;101290.31;6335793;22;45673;-96
2024/01/22 00:36:42;;;;;;;;;0.00;0.00;;;;;11.11;100.00;101303.34;6335805;22;45884;-89
2024/01/22 00:39:10;;;;;;;;;0.00;0.00;;;;;11.08;100.00;101296.41;6335943;22;45501;-90
2024/01/22 00:42:05;;;;;;;;;0.00;0.00;;;;;11.03;100.00;101308.69;6337070;22;45344;-96
2024/01/22 00:44:30;;;;;;;;;0.00;0.00;;;;;11.03;100.00;101293.94;6215190;22;52819;-90
2024/01/22 00:46:56;;;;;;;;;0.00;0.00;;;;;11.03;100.00;101295.66;6189245;22;66376;-91
2024/01/22 00:49:21;;;;;;;;;0.00;0.00;;;;;11.08;100.00;101295.56;6240813;22;45439;-90
2024/01/22 00:51:46;;;;;;;;;1.00;0.00;;;;;11.03;100.00;101283.50;6214642;22;70019;-89
2024/01/22 00:54:12;;;;;;;;;0.00;0.00;;;;;11.03;100.00;101304.34;6216115;22;45439;-93
2024/01/22 00:56:43;;;;;;;;;0.00;0.00;;;;;11.10;100.00;101279.00;6245991;22;46798;-91
2024/01/22 00:59:37;;;;;;;;;0.00;0.00;;;;;11.05;100.00;101299.13;6247696;22;57070;-91
2024/01/22 01:02:03;;;;;;;;;0.00;0.00;;;;;11.10;100.00;101310.25;6254833;22;45772;-90
2024/01/22 01:04:29;;;;;;;;;0.00;0.00;;;;;11.14;100.00;101293.66;6273941;22;45441;-90
2024/01/22 01:06:57;;;;;;;;;0.00;0.00;;;;;11.19;100.00;101310.06;6247410;22;46339;-90
2024/01/22 01:09:29;;;;;;;;;1.00;0.00;;;;;11.23;100.00;101342.13;6220541;22;66253;-89
2024/01/22 01:11:54;;;;;;;;;0.00;0.00;;;;;11.30;100.00;101314.19;6247843;22;45394;-89
2024/01/22 01:14:24;;;;;;;;;0.00;0.00;;;;;11.30;100.00;101304.63;6221373;22;65442;-89
2024/01/22 01:16:50;;;;;;;;;0.00;0.00;;;;;11.28;100.00;101305.56;6222259;22;47290;-90
2024/01/22 01:19:20;;;;;;;;;0.00;0.00;;;;;11.28;100.00;101287.31;6247983;22;45261;-94
2024/01/22 01:21:46;;;;;;;;;0.00;0.00;;;;;11.33;100.00;101298.47;6323447;22;45376;-90
2024/01/22 01:24:11;;;;;;;;;0.00;0.00;;;;;11.40;100.00;101282.66;6368859;22;48731;-90
2024/01/22 01:26:47;;;;;;;;;0.00;0.00;;;;;11.42;100.00;101304.34;6315834;22;61699;-91
2024/01/22 01:29:13;;;;;;;;;0.00;0.00;;;;;11.37;100.00;101279.28;6342668;22;45225;-92
2024/01/22 01:31:38;;;;;;;;;0.00;0.00;;;;;11.43;100.00;101263.47;6342924;22;45178;-95
2024/01/22 01:34:03;;;;;;;;;0.00;0.00;;;;;11.51;100.00;101265.91;6342898;22;45405;-92
2024/01/22 01:36:29;;;;;;;;;0.00;0.00;;;;;11.51;100.00;101239.84;6342639;22;46604;-89
2024/01/22 01:38:54;;;;;;;;;0.00;0.00;;;;;11.51;100.00;101234.63;6342110;22;45170;-93
2024/01/22 01:41:20;;;;;;;;;0.00;0.00;;;;;11.58;100.00;101247.47;6315303;22;62538;-91
2024/01/22 01:43:45;;;;;;;;;0.00;0.00;;;;;11.59;100.00;101258.75;6342025;22;51337;-91
2024/01/22 01:46:19;;;;;;;;;1.67;0.00;;;;;11.55;100.00;101277.97;6315755;22;64655;-96
2024/01/22 01:48:45;;;;;;;;;0.00;0.00;;;;;11.57;100.00;101284.88;6316184;22;45363;-94
2024/01/22 01:51:10;;;;;;;;;0.00;0.00;;;;;11.65;100.00;101276.84;6368731;22;45351;-91
2024/01/22 01:53:59;;;;;;;;;0.00;0.00;;;;;11.68;100.00;101273.31;6342441;22;45424;-96
2024/01/22 01:56:57;;;;;;;;;0.00;0.00;;;;;11.71;100.00;101273.25;6247430;22;51190;-91
2024/01/22 01:59:25;;;;;;;;;0.00;0.00;;;;;11.74;100.00;101255.75;6238590;22;45640;-91
2024/01/22 02:01:50;;;;;;;;;0.00;0.00;;;;;11.77;100.00;101232.19;6221585;22;52932;-90
2024/01/22 02:04:15;;;;;;;;;0.00;0.00;;;;;11.81;100.00;101275.59;6221298;22;57487;-92
2024/01/22 02:06:41;;;;;;;;;0.00;0.00;;;;;11.85;100.00;101258.09;6247393;22;49362;-92
2024/01/22 02:09:44;;;;;;;;;0.00;0.00;;;;;11.88;100.00;101263.22;6221457;22;45321;-94
2024/01/22 02:12:16;;;;;;;;;0.00;0.00;;;;;11.81;100.00;101257.31;6239090;22;45290;-95
2024/01/22 02:15:01;;;;;;;;;0.00;0.00;;;;;11.87;100.00;101261.53;6205547;22;45275;-93
2024/01/22 02:17:26;;;;;;;;;0.00;0.00;;;;;11.98;100.00;101240.41;6201796;22;47390;-90
2024/01/22 02:19:52;;;;;;;;;0.00;0.00;;;;;11.97;100.00;101264.78;6216518;22;45921;-91
2024/01/22 02:22:20;;;;;;;;;0.00;0.00;;;;;12.07;100.00;101262.78;6216721;22;45400;-91
2024/01/22 02:24:45;;;;;;;;;0.00;0.00;;;;;12.03;100.00;101261.16;6216699;22;54816;-91
2024/01/22 02:27:11;;;;;;;;;0.00;0.00;;;;;12.09;100.00;101253.16;6215929;22;61736;-92
2024/01/22 02:29:39;;;;;;;;;0.00;0.00;;;;;12.09;100.00;101248.81;6192317;22;45488;-94
2024/01/22 02:32:07;;;;;;;;;0.00;0.00;;;;;12.18;100.00;101232.00;6242596;22;45432;-92
2024/01/22 02:34:39;;;;;;;;;0.00;0.00;;;;;12.21;100.00;101211.06;6335295;22;45322;-92
2024/01/22 02:37:05;;;;;;;;;0.00;0.00;;;;;12.20;100.00;101201.50;6338146;22;46661;-91
2024/01/22 02:39:30;;;;;;;;;0.00;0.00;;;;;12.21;100.00;101205.84;6310986;22;45353;-90
2024/01/22 02:41:59;;;;;;;;;0.00;0.00;;;;;12.24;100.00;101191.84;6311726;22;45306;-92
2024/01/22 02:44:24;;;;;;;;;0.00;0.00;;;;;12.27;100.00;101205.66;6338886;22;45204;-92
2024/01/22 02:46:50;;;;;;;;;0.00;0.00;;;;;12.28;100.00;101191.72;6310559;22;51661;-92
2024/01/22 02:49:30;;;;;;;;;0.00;0.00;;;;;12.13;100.00;101184.34;6310603;22;45251;-93
2024/01/22 02:52:08;;;;;;;;;0.00;0.00;;;;;11.98;100.00;101177.78;6338583;22;45285;-94
2024/01/22 02:54:33;;;;;;;;;0.00;0.00;;;;;11.77;100.00;101171.34;6339112;22;45178;-93
2024/01/22 02:56:59;;;;;;;;;0.00;0.00;;;;;11.68;100.00;101163.78;6310461;22;46274;-91
2024/01/22 02:59:57;;;;;;;;;0.00;0.00;;;;;11.60;100.00;101171.81;6310234;22;45455;-94
2024/01/22 03:02:22;;;;;;;;;0.00;0.00;;;;;11.58;100.00;101176.22;6242669;22;45226;-92
2024/01/22 03:04:48;;;;;;;;;0.00;0.00;;;;;11.60;100.00;101151.78;6216392;22;45342;-91
2024/01/22 03:07:26;;;;;;;;;0.00;0.00;;;;;11.55;100.00;101165.84;6244020;22;46494;-93
2024/01/22 03:09:52;;;;;;;;;0.00;0.00;;;;;11.59;100.00;101151.88;6246846;22;51443;-91
2024/01/22 03:12:17;;;;;;;;;0.00;0.00;;;;;11.63;100.00;101156.09;6273368;22;45688;-91
2024/01/22 03:14:48;;;;;;;;;0.00;0.00;;;;;11.53;100.00;101155.47;6272792;22;51419;-91
2024/01/22 03:17:16;;;;;;;;;0.00;0.00;;;;;11.58;100.00;101144.94;6247068;22;46586;-95
2024/01/22 03:19:49;;;;;;;;;0.00;0.00;;;;;11.57;100.00;101135.38;6220326;22;59082;-90
2024/01/22 03:22:35;;;;;;;;;0.00;0.00;;;;;11.57;100.00;101137.97;6272905;22;45402;-90
2024/01/22 03:25:00;;;;;;;;;0.00;0.00;;;;;11.43;100.00;101138.38;6250856;22;45555;-92
2024/01/22 03:27:37;;;;;;;;;0.00;0.00;;;;;11.32;100.00;101125.59;6273067;22;46092;-93
2024/01/22 03:30:06;;;;;;;;;0.00;0.00;;;;;11.38;100.00;101109.78;6246661;22;64188;-89
2024/01/22 03:32:32;;;;;;;;;0.00;0.00;;;;;11.33;100.00;101119.50;6247568;22;45385;-90
2024/01/22 03:34:58;;;;;;;;;0.00;0.00;;;;;11.32;100.00;101112.56;6241714;22;45504;-91
2024/01/22 03:37:23;;;;;;;;;0.00;0.00;;;;;11.35;100.00;101122.09;6264097;22;46503;-90
2024/01/22 03:39:48;;;;;;;;;0.00;0.00;;;;;11.37;100.00;101147.19;6279112;22;45400;-90
2024/01/22 03:42:14;;;;;;;;;0.00;0.00;;;;;11.37;100.00;101126.34;6362345;22;45341;-92
2024/01/22 03:44:48;;;;;;;;;1.00;1.00;;;;;11.35;100.00;101119.47;6310239;22;45748;-91
2024/01/22 03:47:39;;;;;;;;;1.00;0.00;;;;;11.35;100.00;101114.25;6336294;22;45369;-91
2024/01/22 03:50:08;;;;;;;;;0.00;0.00;;;;;11.47;100.00;101124.34;6318106;22;45337;-92
2024/01/22 03:53:06;;;;;;;;;0.00;0.00;;;;;11.48;100.00;101126.06;6336824;22;45341;-93
2024/01/22 03:55:31;;;;;;;;;0.00;0.00;;;;;11.52;100.00;101114.66;6334955;22;45400;-91
2024/01/22 04:04:16;;;;;;;;;0.00;0.00;;;;;11.60;100.00;101111.84;6062932;23;45328;-90
2024/01/22 04:06:41;;;;;;;;;0.00;0.00;;;;;11.67;100.00;101102.13;6062722;23;49868;-90
2024/01/22 04:09:24;;;;;;;;;0.00;0.00;;;;;11.59;100.00;101107.53;6062588;23;45495;-93
2024/01/22 04:11:49;;;;;;;;;0.00;0.00;;;;;11.69;100.00;101105.53;6039291;23;45430;-91
2024/01/22 04:14:15;;;;;;;;;0.00;0.00;;;;;11.73;100.00;101104.53;6062611;23;45394;-91
2024/01/22 04:16:50;;;;;;;;;0.00;0.00;;;;;11.71;100.00;101095.91;6062572;23;45713;-93
2024/01/22 04:19:22;;;;;;;;;0.00;0.00;;;;;11.73;100.00;101109.75;6062231;23;45399;-94
2024/01/22 04:21:48;;;;;;;;;1.00;0.00;;;;;11.74;100.00;101114.09;6061581;23;68173;-93
2024/01/22 04:24:14;;;;;;;;;0.00;0.00;;;;;11.75;100.00;101100.97;6062872;23;45351;-92
2024/01/22 04:29:36;;;;;;;;;0.00;0.00;;;;;11.80;100.00;101121.72;5999195;23;45446;-92
2024/01/22 04:32:05;;;;;;;;;0.00;0.00;;;;;11.89;100.00;101092.78;5957419;23;45441;-93
2024/01/22 04:34:47;;;;;;;;;;;;;;;;;;;;;
2024/01/22 04:37:13;;;;;;;;;0.00;0.00;;;;;11.96;100.00;101093.47;6035964;23;69390;-91
2024/01/22 04:39:39;;;;;;;;;0.00;0.00;;;;;12.05;100.00;101085.38;6129712;22;47317;-90
2024/01/22 04:42:05;;;;;;;;;0.00;0.00;;;;;12.10;100.00;101077.44;6205076;22;45351;-90
2024/01/22 04:44:38;;;;;;;;;0.00;0.00;;;;;12.05;100.00;101081.91;6172989;22;45330;-91
2024/01/22 04:47:29;;;;;;;;;0.00;0.00;;;;;12.09;100.00;101104.41;6163714;22;45237;-95
2024/01/22 04:49:55;;;;;;;;;0.00;0.00;;;;;12.20;100.00;101082.34;6152577;22;47019;-91
2024/01/22 04:52:43;;;;;;;;;0.00;0.00;;;;;12.17;100.00;101076.34;6164944;22;45410;-95
2024/01/22 04:55:09;;;;;;;;;0.00;0.00;;;;;12.23;100.00;101083.13;6175143;22;47394;-90
2024/01/22 04:57:53;;;;;;;;;0.00;0.00;;;;;12.19;100.00;101091.03;6187552;22;45296;-95
2024/01/22 05:00:19;;;;;;;;;0.00;0.00;;;;;12.28;100.00;101056.00;6187948;22;45606;-89
2024/01/22 05:02:47;;;;;;;;;0.00;0.00;;;;;12.30;100.00;101067.25;6187105;22;45287;-90
2024/01/22 05:05:21;;;;;;;;;0.00;0.00;;;;;12.31;100.00;101084.63;6162302;22;45268;-91
2024/01/22 05:07:53;;;;;;;;;12.00;12.00;;;;;12.36;100.00;101082.69;6330910;22;46666;-96
2024/01/22 05:10:18;;;;;;;;;0.00;0.00;;;;;12.35;100.00;101060.13;6336800;22;66189;-90
2024/01/22 05:12:43;;;;;;;;;1.00;0.00;;;;;12.35;100.00;101054.91;6355608;22;47752;-90
2024/01/22 05:15:16;;;;;;;;;0.00;0.00;;;;;12.35;100.00;101067.97;6342819;22;45459;-91
2024/01/22 05:18:11;;;;;;;;;0.00;0.00;;;;;12.37;100.00;101073.13;6342225;22;55215;-92
2024/01/22 05:20:51;;;;;;;;;0.00;0.00;;;;;12.39;100.00;101064.34;6367915;22;45333;-90
2024/01/22 05:23:16;;;;;;;;;0.00;0.00;;;;;12.43;100.00;101048.59;6369292;22;45237;-90
2024/01/22 05:25:42;;;;;;;;;0.00;0.00;;;;;12.49;100.00;101058.84;6343337;22;45173;-91
2024/01/22 05:28:07;;;;;;;;;0.00;0.00;;;;;12.53;100.00;101042.16;6369725;22;45459;-91
2024/01/22 05:30:32;;;;;;;;;0.00;0.00;;;;;12.48;100.00;101046.66;6342761;22;48373;-91
2024/01/22 05:32:58;;;;;;;;;0.25;0.25;;;;;12.46;100.00;101057.19;6316570;22;45288;-92
2024/01/22 05:35:46;;;;;;;;;;;;;;;;;;;;;
2024/01/22 05:38:17;;;;;;;;;0.00;0.00;;;;;12.53;100.00;101053.44;6366645;22;68990;-92
2024/01/22 05:40:54;;;;;;;;;0.00;0.00;;;;;12.46;100.00;101061.53;6370811;22;45697;-93
2024/01/22 05:43:23;;;;;;;;;0.00;0.00;;;;;12.47;100.00;101039.75;6369472;22;45360;-90
2024/01/22 05:45:48;;;;;;;;;0.00;0.00;;;;;12.51;100.00;101052.66;6342195;22;45258;-90
2024/01/22 05:48:14;;;;;;;;;0.00;0.00;;;;;12.49;100.00;101044.00;6368865;22;45193;-90
2024/01/22 05:50:48;;;;;;;;;0.00;0.00;;;;;12.45;100.00;101031.13;6368261;22;62071;-94
2024/01/22 05:53:13;;;;;;;;;0.00;0.00;;;;;12.42;100.00;101036.44;6368243;22;45359;-91
2024/01/22 05:55:59;;;;;;;;;0.00;0.00;;;;;12.37;100.00;101041.81;6370679;22;45389;-94
2024/01/22 05:58:24;;;;;;;;;0.00;0.00;;;;;12.45;100.00;101033.72;6370295;22;45245;-91
2024/01/22 06:00:50;;;;;;;;;0.00;0.00;;;;;12.39;100.00;101027.78;6314639;22;60680;-94
2024/01/22 06:03:15;;;;;;;;;0.00;0.00;;;;;12.48;100.00;101026.66;6315801;22;49748;-90
2024/01/22 06:06:07;;;;;;;;;0.00;0.00;;;;;12.44;100.00;101017.19;6342078;22;57942;-92
2024/01/22 06:08:35;;;;;;;;;0.00;0.00;;;;;12.42;100.00;101016.38;6363758;22;45402;-96
2024/01/22 06:11:11;;;;;;;;;0.00;0.00;;;;;12.45;100.00;101010.22;6369763;22;45330;-95
2024/01/22 06:13:42;;;;;;;;;0.00;0.00;;;;;12.44;100.00;101021.56;6368417;22;45237;-91
2024/01/22 06:16:12;;;;;;;;;0.00;0.00;;;;;12.44;100.00;101011.13;6369683;22;45458;-91
2024/01/22 06:18:39;;;;;;;;;0.00;0.00;;;;;12.42;100.00;101020.75;6342408;22;45301;-91
2024/01/22 06:21:05;;;;;;;;;0.00;0.00;;;;;12.46;100.00;101009.31;6339675;22;45689;-91
2024/01/22 06:23:46;;;;;;;;;0.00;0.00;;;;;12.36;100.00;101016.59;6342423;22;45316;-96
2024/01/22 06:26:22;;;;;;;;;0.00;0.00;;;;;12.34;100.00;101011.41;6264883;22;45347;-95
2024/01/22 06:28:47;;;;;;;;;0.00;0.00;;;;;12.31;100.00;101010.66;6272744;22;45168;-92
2024/01/22 06:31:13;;;;;;;;;0.00;0.00;;;;;12.31;100.00;101006.31;6222225;22;47030;-90
2024/01/22 06:34:02;;;;;;;;;0.00;0.00;;;;;12.18;100.00;100992.78;6273525;22;45380;-93
2024/01/22 06:36:29;;;;;;;;;0.00;0.00;;;;;12.16;100.00;101007.63;6233830;22;45347;-96
2024/01/22 06:41:53;;;;;;;;;0.00;0.00;;;;;12.23;100.00;100992.63;6262994;22;46947;-95
2024/01/22 06:44:18;;;;;;;;;0.00;0.00;;;;;12.10;100.00;101006.97;6273168;22;45358;-92
2024/01/22 06:46:59;;;;;;;;;;;;;;;;;;;;;
2024/01/22 06:49:30;;;;;;;;;0.00;0.00;;;;;11.92;100.00;100980.56;6273187;22;68890;-96
2024/01/22 06:52:10;;;;;;;;;0.00;0.00;;;;;11.96;100.00;101002.16;6315988;22;47813;-93
2024/01/22 06:54:36;;;;;;;;;0.00;0.00;;;;;11.87;100.00;101007.63;6342813;22;45233;-90
2024/01/22 06:57:10;;;;;;;;;0.00;0.00;;;;;11.97;100.00;101006.50;6341444;22;45266;-94
2024/01/22 06:59:56;;;;;;;;;3.00;3.00;;;;;11.94;100.00;101017.00;6369943;22;45530;-90
2024/01/22 07:02:26;;;;;;;;;0.00;0.00;;;;;11.85;100.00;100999.00;6341918;22;47087;-89
2024/01/22 07:04:52;;;;;;;;;0.00;0.00;;;;;11.90;100.00;100995.38;6369844;22;45336;-90
2024/01/22 07:07:20;;;;;;;;;0.00;0.00;;;;;11.91;100.00;101010.16;6370161;22;45253;-87
2024/01/22 07:10:17;;;;;;;;;0.00;0.00;;;;;11.95;100.00;100998.72;6341863;22;46565;-90
2024/01/22 07:12:54;;;;;;;;;0.00;0.00;;;;;11.85;100.00;101020.75;6340673;22;47394;-91
2024/01/22 07:15:28;;;;;;;;;0.00;0.00;;;;;11.86;100.00;100983.31;6342043;22;45451;-92
2024/01/22 07:18:10;;;;;;;;;;;;;;;;;;;;;
2024/01/22 07:20:42;;;;;;;;;0.00;0.00;;;;;12.73;100.00;100994.50;6367833;22;70280;-89
2024/01/22 07:23:07;;;;;;;;;0.00;0.00;;;;;11.76;100.00;101041.88;6320877;22;68741;-88
2024/01/22 07:25:36;;;;;;;;;0.00;0.00;;;;;11.60;100.00;100990.16;6369420;22;45428;-90
2024/01/22 07:28:04;;;;;;;;;0.00;0.00;;;;;11.47;100.00;100974.91;6341709;22;45290;-90
2024/01/22 07:30:29;;;;;;;;;0.00;0.00;;;;;11.38;100.00;101012.50;6367511;22;45386;-86
2024/01/22 07:32:55;;;;;;;;;0.00;0.00;;;;;11.45;100.00;100981.94;6341011;22;46849;-87
2024/01/22 07:35:20;;;;;;;;;0.00;0.00;;;;;11.42;100.00;100988.06;6313503;22;58407;-90
2024/01/22 07:37:46;;;;;;;;;0.00;0.00;;;;;11.44;100.00;100994.13;6341463;22;45299;-91
2024/01/22 07:40:11;;;;;;;;;0.00;0.00;;;;;11.47;100.00;100994.00;6368424;22;45324;-89
2024/01/22 07:49:18;;;;;;;;;0.00;0.00;;;;;11.86;100.00;101008.53;6287830;22;45266;-89
2024/01/22 07:52:24;;;;;;;;;;;;;;;;;;;;;
2024/01/22 07:55:23;;;;;;;;;;;;;;;;;;;;;
2024/01/22 07:58:36;;;;;;;;;0.00;0.00;;;;;12.05;100.00;101041.03;6174232;23;74221;-93
2024/01/22 08:01:02;;;;;;;;;0.00;0.00;;;;;12.09;100.00;101075.72;6181515;23;45419;-89
2024/01/22 08:04:42;;;;;;;;;0.00;0.00;;;;;12.16;100.00;101043.31;6183116;23;45268;-96
2024/01/22 08:07:10;;;;;;;;;;;;;;;;;;;;;
2024/01/22 08:10:15;;;;;;;;;0.00;0.00;;;;;12.19;100.00;101049.28;6098982;23;72911;-92
2024/01/22 08:13:19;;;;;;;;;;;;;;;;;;;;;
2024/01/22 08:15:54;;;;;;;;;0.00;0.00;;;;;12.16;100.00;101072.84;6005692;23;68601;-93
2024/01/22 08:18:29;;;;;;;;;0.00;0.00;;;;;12.29;100.00;101096.00;5982472;23;45470;-92
2024/01/22 08:45:09;;;;;;;;;0.00;0.00;;;;;14.52;100.00;101158.97;5766620;22;12582934;-92
2024/01/22 08:47:37;;;;;;;;;0.00;0.00;;;;;14.60;100.00;101166.53;6282258;22;47222;-89
2024/01/22 08:53:41;;;;;;;;;0.00;0.00;;;;;12.14;100.00;101137.28;6186766;23;45425;-90
2024/01/22 08:56:13;;;;;;;;;0.00;0.00;;;;;12.06;100.00;101151.50;6138924;23;45583;-91
2024/01/22 08:58:47;;;;;;;;;0.00;0.00;;;;;12.00;100.00;101145.53;6164122;23;45476;-91
2024/01/22 09:01:12;;;;;;;;;0.00;0.00;;;;;12.03;100.00;101154.16;6163757;23;45389;-88
2024/01/22 09:03:38;;;;;;;;;0.00;0.00;;;;;11.92;100.00;101170.13;6163665;23;45237;-86
2024/01/22 09:06:08;;;;;;;;;1.00;0.00;;;;;11.95;100.00;101165.66;6163747;23;68926;-89
2024/01/22 09:08:43;;;;;;;;;0.00;0.00;;;;;11.92;100.00;101177.94;6163137;23;48284;-90
2024/01/22 09:11:40;;;;;;;;;;;;;;;;;;;;;
2024/01/22 09:14:08;;;;;;;;;0.00;0.00;;;;;11.86;100.00;101163.28;6100836;23;68870;-89
2024/01/22 09:16:47;;;;;;;;;0.00;0.00;;;;;11.96;100.00;101174.34;6185911;23;45335;-90
2024/01/22 09:19:48;;;;;;;;;0.00;0.00;;;;;11.96;100.00;101170.00;6139805;23;47458;-90
2024/01/22 09:22:14;;;;;;;;;0.00;0.00;;;;;12.10;100.00;101171.38;6159646;23;46080;-89
2024/01/22 09:24:50;;;;;;;;;0.00;0.00;;;;;12.27;100.00;101182.16;6163270;23;45396;-91
2024/01/22 09:27:15;;;;;;;;;0.00;0.00;;;;;12.41;100.00;101168.72;6113462;23;45306;-88
2024/01/22 09:29:48;;;;;;;;;0.00;0.00;;;;;12.48;100.00;101175.47;6152636;22;47978;-89
2024/01/22 09:32:26;;;;;;;;;0.00;0.00;;;;;12.56;100.00;101185.69;6256199;22;45290;-88
2024/01/22 09:35:09;;;;;;;;;0.00;0.00;;;;;12.57;100.00;101192.59;6281666;22;45454;-92
2024/01/22 09:37:35;;;;;;;;;0.00;0.00;;;;;12.70;100.00;101200.94;6282678;22;45150;-87
2024/01/22 09:40:23;;;;;;;;;0.00;0.00;;;;;12.77;100.00;101203.31;6254336;22;67704;-88
2024/01/22 09:42:53;;;;;;;;;0.00;0.00;;;;;12.87;100.00;101210.84;6247555;22;45431;-88
2024/01/22 09:45:21;;;;;;;;;0.00;0.00;;;;;12.95;100.00;101227.19;6224882;22;45242;-88
2024/01/22 09:47:50;;;;;;;;;0.00;0.00;;;;;12.90;100.00;101222.06;6249160;22;45343;-89
2024/01/22 09:50:27;;;;;;;;;0.00;0.00;;;;;12.99;100.00;101226.16;6248685;22;45388;-90
2024/01/22 09:53:08;;;;;;;;;0.00;0.00;;;;;12.96;100.00;101232.34;6275527;22;45254;-90
2024/01/22 09:55:41;;;;;;;;;0.00;0.00;;;;;12.91;100.00;101226.41;6226637;22;45243;-89
2024/01/22 09:58:09;;;;;;;;;0.00;0.00;;;;;12.92;100.00;101233.34;6276253;22;45264;-87
2024/01/22 10:00:49;;;;;;;;;0.00;0.00;;;;;12.99;100.00;101239.22;6248097;22;45386;-88
2024/01/22 10:03:14;;;;;;;;;0.00;0.00;;;;;13.12;100.00;101260.63;6248249;22;45272;-87
2024/01/22 10:05:40;;;;;;;;;0.00;0.00;;;;;13.04;100.00;101250.41;6222403;22;45451;-87
2024/01/22 10:08:34;;;;;;;;;0.00;0.00;;;;;13.01;100.00;101284.47;6248961;22;45202;-89
2024/01/22 10:11:20;;;;;;;;;0.00;0.00;;;;;12.86;100.00;101280.56;6248442;22;47219;-87
2024/01/22 10:13:51;;;;;;;;;0.00;0.00;;;;;12.61;100.00;101279.56;6247586;22;45274;-88
2024/01/22 10:16:36;;;;;;;;;0.00;0.00;;;;;12.36;100.00;101281.09;6249126;22;45329;-88
2024/01/22 10:23:08;;;;;;;;;0.00;0.00;;;;;15.38;100.00;101280.56;6073199;23;46468;-89
2024/01/22 10:25:43;;;;;;;;;0.00;0.00;;;;;15.67;100.00;101308.25;6092931;23;45393;-90
2024/01/22 10:32:00;;;;;;;;;0.00;0.00;;;;;15.89;100.00;101334.50;6004270;23;45630;-89
2024/01/22 10:35:09;;;;;;;;;0.00;0.00;;;;;15.94;100.00;101332.53;5958444;23;47927;-90
2024/01/22 10:38:23;;;;;;;;;;;;;;;;;;;;;
2024/01/22 10:41:03;;;;;;;;;0.00;0.00;;;;;16.04;100.00;101335.63;5972950;23;45246;-87
2024/01/22 10:43:57;;;;;;;;;0.00;0.00;;;;;16.12;100.00;101332.66;5976665;23;45236;-87
2024/01/22 10:46:23;;;;;;;;;0.00;0.00;;;;;16.15;100.00;101343.06;5953613;23;46362;-86
2024/01/22 10:48:52;;;;;;;;;0.00;0.00;;;;;16.20;100.00;101338.47;5976379;23;45243;-86
2024/01/22 10:51:25;;;;;;;;;0.00;0.00;;;;;16.34;100.00;101346.56;5952832;23;45397;-86
2024/01/22 10:53:56;;;;;;;;;0.00;0.00;;;;;16.22;100.00;101337.47;5952768;23;45485;-87
2024/01/22 10:56:58;;;;;;;;;0.00;0.00;;;;;16.33;100.00;101339.63;5975618;23;47087;-87
2024/01/22 10:59:38;;;;;;;;;0.00;0.00;;;;;16.38;100.00;101339.41;6022204;23;45924;-85
2024/01/22 11:02:25;;;;;;;;;0.00;0.00;;;;;16.07;100.00;101346.00;6068333;23;45244;-86
2024/01/22 11:05:02;;;;;;;;;0.00;0.00;;;;;14.70;100.00;101317.25;6091541;23;45433;-87
2024/01/22 11:07:37;;;;;;;;;0.00;0.00;;;;;13.93;100.00;101312.09;6120427;23;45373;-86
2024/01/22 11:10:11;;;;;;;;;0.00;0.00;;;;;13.76;100.00;101296.94;6156095;23;45424;-86
2024/01/22 11:12:58;;;;;;;;;0.00;0.00;;;;;13.55;100.00;101303.72;6157252;23;45318;-85
2024/01/22 11:15:31;;;;;;;;;0.00;0.00;;;;;13.65;100.00;101289.47;6245365;22;45318;-86
2024/01/22 11:18:16;;;;;;;;;;;;;;;;;;;;;
2024/01/22 11:20:49;;;;;;;;;0.00;0.00;;;;;13.61;100.00;101297.44;6245846;22;72858;-86
2024/01/22 11:24:06;;;;;;;;;0.00;0.00;;;;;13.79;100.00;101302.06;6248939;22;45503;-86
2024/01/22 11:26:33;;;;;;;;;0.00;0.00;;;;;14.14;100.00;101315.72;6239933;22;45492;-86
2024/01/22 11:29:18;;;;;;;;;;;;;;;;;;;;;
2024/01/22 11:31:56;;;;;;;;;;;;;;;;;;;;;
2024/01/22 11:34:54;;;;;;;;;0.00;0.00;;;;;15.16;100.00;101344.38;6266582;22;68020;-85
2024/01/22 11:37:36;;;;;;;;;0.00;0.00;;;;;15.10;100.00;101344.63;6274412;22;45474;-85
2024/01/22 11:40:18;;;;;;;;;0.00;0.00;;;;;14.80;100.00;101352.72;6221512;22;48275;-86
2024/01/22 11:42:45;;;;;;;;;0.00;0.00;;;;;14.86;100.00;101349.84;6273986;22;45329;-85
2024/01/22 11:45:14;;;;;;;;;0.00;0.00;;;;;14.84;100.00;101338.59;6247619;22;45271;-84
2024/01/22 11:47:41;;;;;;;;;0.00;0.00;;;;;16.24;100.00;101369.78;6247586;22;45403;-84
2024/01/22 11:50:09;;;;;;;;;0.00;0.00;;;;;17.66;100.00;101346.72;6274243;22;46284;-85
2024/01/22 11:52:35;;;;;;;;;0.00;0.00;;;;;18.79;100.00;101357.69;6248546;22;45346;-84
2024/01/22 11:55:06;;;;;;;;;0.00;0.00;;;;;19.07;100.00;101360.53;6247849;22;45513;-84
2024/01/22 11:57:35;;;;;;;;;0.00;0.00;;;;;17.29;100.00;101375.66;6247704;22;45426;-85
2024/01/22 12:00:04;;;;;;;;;0.00;0.00;;;;;17.86;100.00;101346.63;6248672;22;46162;-85
2024/01/22 12:02:41;;;;;;;;;0.00;0.00;;;;;19.29;100.00;101364.66;6246744;22;45387;-84
2024/01/22 12:05:12;;;;;;;;;0.00;0.00;;;;;20.28;100.00;101328.13;6248760;22;45337;-85
2024/01/22 12:07:45;;;;;;;;;0.00;0.00;;;;;20.15;100.00;101351.84;6273627;22;45361;-85
2024/01/22 12:10:26;;;;;;;;;0.00;0.00;;;;;20.24;100.00;101358.34;6246834;22;45259;-86
2024/01/22 12:13:03;;;;;;;;;0.00;0.00;;;;;18.37;100.00;101373.06;6246595;22;45369;-85
2024/01/22 12:15:31;;;;;;;;;0.00;0.00;;;;;18.03;100.00;101366.84;6247191;22;45390;-84
2024/01/22 12:17:57;;;;;;;;;0.00;0.00;;;;;18.46;100.00;101361.16;6246024;22;45312;-84
2024/01/22 12:20:33;;;;;;;;;0.00;0.00;;;;;20.79;100.00;101354.19;6246383;22;46918;-86
2024/01/22 12:23:17;;;;;;;;;;;;;;;;;;;;;
2024/01/22 12:25:43;;;;;;;;;0.00;0.00;;;;;24.26;100.00;101355.84;6248262;22;67453;-85
2024/01/22 12:28:14;;;;;;;;;0.00;0.00;;;;;23.69;100.00;101375.22;6221201;22;45510;-86
2024/01/22 12:30:46;;;;;;;;;0.00;0.00;;;;;25.91;100.00;101372.00;6271737;22;47082;-86
2024/01/22 12:33:25;;;;;;;;;0.00;0.00;;;;;26.49;100.00;101358.19;6247306;22;45338;-86
2024/01/22 12:35:51;;;;;;;;;0.00;0.00;;;;;25.51;100.00;101369.97;6246487;22;45248;-86
2024/01/22 12:38:20;;;;;;;;;0.00;0.00;;;;;25.71;100.00;101343.47;6246248;22;45476;-85
2024/01/22 12:40:45;;;;;;;;;0.00;0.00;;;;;28.02;100.00;101357.97;6246890;22;46114;-85
2024/01/22 12:43:15;;;;;;;;;0.00;0.00;;;;;27.30;100.00;101368.88;6246327;22;45515;-87
2024/01/22 12:45:40;;;;;;;;;0.00;0.00;;;;;27.51;100.00;101365.28;6220263;22;49100;-86
2024/01/22 12:48:14;;;;;;;;;0.00;0.00;;;;;27.04;100.00;101376.53;6246457;22;45137;-86
2024/01/22 12:50:43;;;;;;;;;0.00;0.00;;;;;27.39;100.00;101383.25;6246203;22;47068;-87
2024/01/22 12:53:11;;;;;;;;;0.00;0.00;;;;;27.90;100.00;101387.53;6273870;22;45248;-87
2024/01/22 12:55:36;;;;;;;;;0.00;0.00;;;;;26.05;100.00;101384.19;6246519;22;45333;-86
2024/01/22 13:01:01;;;;;;;;;0.00;0.00;;;;;23.74;100.00;101397.81;6148695;23;46681;-87